sensor_id;sensor_type;location;lat;lon;timestamp;temperature;humidity
35085;SHT85;21267;51.032;6.998;2024-03-23T00:51:05;7.78;94.94
35085;SHT85;21267;51.032;6.998;2024-03-23T00:55:57;7.76;95.32
35085;SHT85;21267;51.032;6.998;2024-03-23T01:00:33;7.83;95.86
35085;SHT85;21267;51.032;6.998;2024-03-23T01:03:02;7.81;95.89
35085;SHT85;21267;51.032;6.998;2024-03-23T01:05:28;7.82;95.63
35085;SHT85;21267;51.032;6.998;2024-03-23T01:07:55;7.62;95.64
35085;SHT85;21267;51.032;6.998;2024-03-23T01:10:21;7.51;95.22
35085;SHT85;21267;51.032;6.998;2024-03-23T01:12:49;7.34;95.15
35085;SHT85;21267;51.032;6.998;2024-03-23T01:15:15;7.34;95.21
35085;SHT85;21267;51.032;6.998;2024-03-23T01:17:40;7.18;95.17
35085;SHT85;21267;51.032;6.998;2024-03-23T01:20:07;7.31;95.32
35085;SHT85;21267;51.032;6.998;2024-03-23T01:22:32;7.21;95.16
35085;SHT85;21267;51.032;6.998;2024-03-23T01:24:58;7.24;95.38
35085;SHT85;21267;51.032;6.998;2024-03-23T01:27:24;7.18;95.27
35085;SHT85;21267;51.032;6.998;2024-03-23T01:29:50;7.08;94.95
35085;SHT85;21267;51.032;6.998;2024-03-23T01:32:18;7.14;94.71
35085;SHT85;21267;51.032;6.998;2024-03-23T01:34:44;7.14;94.75
35085;SHT85;21267;51.032;6.998;2024-03-23T01:37:10;7.10;94.50
35085;SHT85;21267;51.032;6.998;2024-03-23T01:39:36;7.11;94.29
35085;SHT85;21267;51.032;6.998;2024-03-23T01:42:02;7.11;93.99
35085;SHT85;21267;51.032;6.998;2024-03-23T01:44:28;7.23;94.16
35085;SHT85;21267;51.032;6.998;2024-03-23T01:46:53;7.04;93.78
35085;SHT85;21267;51.032;6.998;2024-03-23T01:49:20;6.99;93.89
35085;SHT85;21267;51.032;6.998;2024-03-23T01:51:46;6.97;93.86
35085;SHT85;21267;51.032;6.998;2024-03-23T01:54:12;7.00;93.97
35085;SHT85;21267;51.032;6.998;2024-03-23T01:56:38;7.00;94.16
35085;SHT85;21267;51.032;6.998;2024-03-23T01:59:07;6.94;94.04
35085;SHT85;21267;51.032;6.998;2024-03-23T02:01:34;7.08;93.94
35085;SHT85;21267;51.032;6.998;2024-03-23T02:04:01;6.93;93.78
35085;SHT85;21267;51.032;6.998;2024-03-23T02:06:27;6.94;93.71
35085;SHT85;21267;51.032;6.998;2024-03-23T02:08:55;6.96;93.69
35085;SHT85;21267;51.032;6.998;2024-03-23T02:11:24;6.86;94.07
35085;SHT85;21267;51.032;6.998;2024-03-23T02:14:12;6.92;93.91
35085;SHT85;21267;51.032;6.998;2024-03-23T02:16:38;6.87;93.99
35085;SHT85;21267;51.032;6.998;2024-03-23T02:19:19;6.93;94.18
35085;SHT85;21267;51.032;6.998;2024-03-23T02:21:44;6.90;94.01
35085;SHT85;21267;51.032;6.998;2024-03-23T02:24:12;6.86;94.26
35085;SHT85;21267;51.032;6.998;2024-03-23T02:26:52;6.84;94.19
35085;SHT85;21267;51.032;6.998;2024-03-23T02:29:18;6.75;93.43
35085;SHT85;21267;51.032;6.998;2024-03-23T02:32:00;6.52;92.68
35085;SHT85;21267;51.032;6.998;2024-03-23T02:34:27;6.50;91.85
35085;SHT85;21267;51.032;6.998;2024-03-23T02:37:11;6.49;91.55
35085;SHT85;21267;51.032;6.998;2024-03-23T02:39:37;6.53;91.58
35085;SHT85;21267;51.032;6.998;2024-03-23T02:42:17;6.42;90.90
35085;SHT85;21267;51.032;6.998;2024-03-23T02:44:44;6.44;91.40
35085;SHT85;21267;51.032;6.998;2024-03-23T02:47:10;6.34;91.47
35085;SHT85;21267;51.032;6.998;2024-03-23T02:49:43;6.35;91.53
35085;SHT85;21267;51.032;6.998;2024-03-23T02:52:09;6.35;91.67
35085;SHT85;21267;51.032;6.998;2024-03-23T02:54:34;6.21;91.86
35085;SHT85;21267;51.032;6.998;2024-03-23T02:57:14;6.35;92.22
35085;SHT85;21267;51.032;6.998;2024-03-23T02:59:41;6.31;92.35
35085;SHT85;21267;51.032;6.998;2024-03-23T03:02:06;6.26;92.41
35085;SHT85;21267;51.032;6.998;2024-03-23T03:04:47;6.28;91.93
35085;SHT85;21267;51.032;6.998;2024-03-23T03:07:13;6.21;92.58
35085;SHT85;21267;51.032;6.998;2024-03-23T03:09:53;6.20;93.01
35085;SHT85;21267;51.032;6.998;2024-03-23T03:12:19;6.18;92.45
35085;SHT85;21267;51.032;6.998;2024-03-23T03:14:45;6.13;92.73
35085;SHT85;21267;51.032;6.998;2024-03-23T03:17:25;6.05;92.55
35085;SHT85;21267;51.032;6.998;2024-03-23T03:19:52;6.17;92.77
35085;SHT85;21267;51.032;6.998;2024-03-23T03:22:35;6.10;92.33
35085;SHT85;21267;51.032;6.998;2024-03-23T03:25:01;6.04;92.12
35085;SHT85;21267;51.032;6.998;2024-03-23T03:27:42;6.10;92.30
35085;SHT85;21267;51.032;6.998;2024-03-23T03:30:11;6.07;92.65
35085;SHT85;21267;51.032;6.998;2024-03-23T03:32:44;6.08;92.63
35085;SHT85;21267;51.032;6.998;2024-03-23T03:35:15;6.03;92.24
35085;SHT85;21267;51.032;6.998;2024-03-23T03:37:43;6.05;92.21
35085;SHT85;21267;51.032;6.998;2024-03-23T03:40:17;6.14;92.22
35085;SHT85;21267;51.032;6.998;2024-03-23T03:42:43;6.05;91.84
35085;SHT85;21267;51.032;6.998;2024-03-23T03:45:09;6.00;91.82
35085;SHT85;21267;51.032;6.998;2024-03-23T03:47:34;6.13;91.79
35085;SHT85;21267;51.032;6.998;2024-03-23T03:50:08;6.00;91.95
35085;SHT85;21267;51.032;6.998;2024-03-23T03:52:40;6.07;92.07
35085;SHT85;21267;51.032;6.998;2024-03-23T03:55:26;6.08;92.32
35085;SHT85;21267;51.032;6.998;2024-03-23T03:57:52;6.14;92.32
35085;SHT85;21267;51.032;6.998;2024-03-23T04:00:33;6.17;92.03
35085;SHT85;21267;51.032;6.998;2024-03-23T04:03:02;6.15;92.50
35085;SHT85;21267;51.032;6.998;2024-03-23T04:05:36;6.15;92.71
35085;SHT85;21267;51.032;6.998;2024-03-23T04:08:02;6.20;92.81
35085;SHT85;21267;51.032;6.998;2024-03-23T04:10:27;6.24;92.53
35085;SHT85;21267;51.032;6.998;2024-03-23T04:13:07;6.21;91.27
35085;SHT85;21267;51.032;6.998;2024-03-23T04:15:33;6.13;90.87
35085;SHT85;21267;51.032;6.998;2024-03-23T04:17:59;6.10;90.95
35085;SHT85;21267;51.032;6.998;2024-03-23T04:20:25;6.08;91.14
35085;SHT85;21267;51.032;6.998;2024-03-23T04:22:50;6.15;90.88
35085;SHT85;21267;51.032;6.998;2024-03-23T04:25:16;6.08;91.23
35085;SHT85;21267;51.032;6.998;2024-03-23T04:27:42;6.08;90.92
35085;SHT85;21267;51.032;6.998;2024-03-23T04:30:08;6.14;90.93
35085;SHT85;21267;51.032;6.998;2024-03-23T04:32:40;6.20;90.50
35085;SHT85;21267;51.032;6.998;2024-03-23T04:35:06;6.21;90.88
35085;SHT85;21267;51.032;6.998;2024-03-23T04:37:34;6.26;90.43
35085;SHT85;21267;51.032;6.998;2024-03-23T04:40:07;6.29;90.52
35085;SHT85;21267;51.032;6.998;2024-03-23T04:42:34;6.31;90.81
35085;SHT85;21267;51.032;6.998;2024-03-23T04:45:00;6.26;90.72
35085;SHT85;21267;51.032;6.998;2024-03-23T04:47:41;6.32;91.16
35085;SHT85;21267;51.032;6.998;2024-03-23T04:50:07;6.20;91.47
35085;SHT85;21267;51.032;6.998;2024-03-23T04:52:32;6.18;91.23
35085;SHT85;21267;51.032;6.998;2024-03-23T04:55:06;6.10;92.02
35085;SHT85;21267;51.032;6.998;2024-03-23T04:57:32;6.18;92.13
35085;SHT85;21267;51.032;6.998;2024-03-23T04:59:57;6.17;91.86
35085;SHT85;21267;51.032;6.998;2024-03-23T05:02:38;6.18;91.61
35085;SHT85;21267;51.032;6.998;2024-03-23T05:05:04;6.14;91.99
35085;SHT85;21267;51.032;6.998;2024-03-23T05:07:47;6.11;92.21
35085;SHT85;21267;51.032;6.998;2024-03-23T05:10:15;6.08;91.64
35085;SHT85;21267;51.032;6.998;2024-03-23T05:12:56;6.17;91.03
35085;SHT85;21267;51.032;6.998;2024-03-23T05:15:22;6.20;90.78
35085;SHT85;21267;51.032;6.998;2024-03-23T05:17:48;6.17;91.20
35085;SHT85;21267;51.032;6.998;2024-03-23T05:20:28;6.21;90.63
35085;SHT85;21267;51.032;6.998;2024-03-23T05:22:57;6.18;91.16
35085;SHT85;21267;51.032;6.998;2024-03-23T05:25:39;6.15;91.20
35085;SHT85;21267;51.032;6.998;2024-03-23T05:28:04;6.13;91.20
35085;SHT85;21267;51.032;6.998;2024-03-23T05:30:30;6.07;91.57
35085;SHT85;21267;51.032;6.998;2024-03-23T05:33:03;6.08;92.00
35085;SHT85;21267;51.032;6.998;2024-03-23T05:35:29;6.10;92.07
35085;SHT85;21267;51.032;6.998;2024-03-23T05:37:55;6.10;92.08
35085;SHT85;21267;51.032;6.998;2024-03-23T05:40:35;6.11;91.81
35085;SHT85;21267;51.032;6.998;2024-03-23T05:43:03;6.15;91.69
35085;SHT85;21267;51.032;6.998;2024-03-23T05:45:44;6.03;92.06
35085;SHT85;21267;51.032;6.998;2024-03-23T05:48:09;6.07;92.13
35085;SHT85;21267;51.032;6.998;2024-03-23T05:50:35;6.22;92.06
35085;SHT85;21267;51.032;6.998;2024-03-23T05:53:16;6.11;91.79
35085;SHT85;21267;51.032;6.998;2024-03-23T05:55:42;6.07;92.10
35085;SHT85;21267;51.032;6.998;2024-03-23T05:58:23;6.14;92.11
35085;SHT85;21267;51.032;6.998;2024-03-23T06:00:48;6.14;91.72
35085;SHT85;21267;51.032;6.998;2024-03-23T06:03:14;6.15;92.09
35085;SHT85;21267;51.032;6.998;2024-03-23T06:05:54;6.22;91.78
35085;SHT85;21267;51.032;6.998;2024-03-23T06:08:20;6.17;92.07
35085;SHT85;21267;51.032;6.998;2024-03-23T06:11:01;6.28;91.88
35085;SHT85;21267;51.032;6.998;2024-03-23T06:13:27;6.31;91.35
35085;SHT85;21267;51.032;6.998;2024-03-23T06:15:55;6.31;91.58
35085;SHT85;21267;51.032;6.998;2024-03-23T06:18:36;6.20;91.42
35085;SHT85;21267;51.032;6.998;2024-03-23T06:21:01;6.31;91.78
35085;SHT85;21267;51.032;6.998;2024-03-23T06:23:42;6.28;91.55
35085;SHT85;21267;51.032;6.998;2024-03-23T06:26:08;6.36;91.47
35085;SHT85;21267;51.032;6.998;2024-03-23T06:28:34;6.35;91.33
35085;SHT85;21267;51.032;6.998;2024-03-23T06:30:59;6.28;91.37
35085;SHT85;21267;51.032;6.998;2024-03-23T06:33:25;6.26;91.78
35085;SHT85;21267;51.032;6.998;2024-03-23T06:35:51;6.25;91.66
35085;SHT85;21267;51.032;6.998;2024-03-23T06:38:18;6.28;91.41
35085;SHT85;21267;51.032;6.998;2024-03-23T06:40:58;6.44;91.50
35085;SHT85;21267;51.032;6.998;2024-03-23T06:43:25;6.32;91.19
35085;SHT85;21267;51.032;6.998;2024-03-23T06:45:54;6.28;91.24
35085;SHT85;21267;51.032;6.998;2024-03-23T06:48:20;6.20;91.29
35085;SHT85;21267;51.032;6.998;2024-03-23T06:51:00;6.17;91.45
35085;SHT85;21267;51.032;6.998;2024-03-23T06:53:26;6.18;91.45
35085;SHT85;21267;51.032;6.998;2024-03-23T06:55:53;6.28;91.33
35085;SHT85;21267;51.032;6.998;2024-03-23T06:58:23;6.31;90.51
35085;SHT85;21267;51.032;6.998;2024-03-23T07:00:48;6.44;90.59
35085;SHT85;21267;51.032;6.998;2024-03-23T07:03:15;6.50;90.49
35085;SHT85;21267;51.032;6.998;2024-03-23T07:05:40;6.44;90.35
35085;SHT85;21267;51.032;6.998;2024-03-23T07:08:07;6.45;90.15
35085;SHT85;21267;51.032;6.998;2024-03-23T07:10:32;6.59;90.15
35085;SHT85;21267;51.032;6.998;2024-03-23T07:12:58;6.68;90.19
35085;SHT85;21267;51.032;6.998;2024-03-23T07:15:24;7.03;89.37
35085;SHT85;21267;51.032;6.998;2024-03-23T07:17:49;7.35;88.62
35085;SHT85;21267;51.032;6.998;2024-03-23T07:20:15;7.64;87.44
35085;SHT85;21267;51.032;6.998;2024-03-23T07:22:49;7.48;87.36
35085;SHT85;21267;51.032;6.998;2024-03-23T07:25:14;7.48;87.17
35085;SHT85;21267;51.032;6.998;2024-03-23T07:27:40;7.68;87.17
35085;SHT85;21267;51.032;6.998;2024-03-23T07:32:33;7.83;86.86
35085;SHT85;21267;51.032;6.998;2024-03-23T07:35:26;7.86;86.06
35085;SHT85;21267;51.032;6.998;2024-03-23T07:37:52;7.83;87.00
35085;SHT85;21267;51.032;6.998;2024-03-23T07:40:17;8.24;86.35
35085;SHT85;21267;51.032;6.998;2024-03-23T07:42:58;8.45;85.19
35085;SHT85;21267;51.032;6.998;2024-03-23T07:45:23;8.68;84.67
35085;SHT85;21267;51.032;6.998;2024-03-23T07:48:11;8.54;83.75
35085;SHT85;21267;51.032;6.998;2024-03-23T07:50:44;8.61;83.36
35085;SHT85;21267;51.032;6.998;2024-03-23T07:53:24;8.57;83.47
35085;SHT85;21267;51.032;6.998;2024-03-23T07:56:09;8.51;84.14
35085;SHT85;21267;51.032;6.998;2024-03-23T07:58:38;8.45;83.95
35085;SHT85;21267;51.032;6.998;2024-03-23T08:01:06;8.98;83.77
35085;SHT85;21267;51.032;6.998;2024-03-23T08:03:35;9.23;82.70
35085;SHT85;21267;51.032;6.998;2024-03-23T08:06:12;8.86;82.30
35085;SHT85;21267;51.032;6.998;2024-03-23T08:08:38;9.16;82.19
35085;SHT85;21267;51.032;6.998;2024-03-23T08:11:04;9.73;80.96
35085;SHT85;21267;51.032;6.998;2024-03-23T08:13:30;10.19;80.24
35085;SHT85;21267;51.032;6.998;2024-03-23T08:16:00;9.95;78.93
35085;SHT85;21267;51.032;6.998;2024-03-23T08:18:26;9.82;78.60
35085;SHT85;21267;51.032;6.998;2024-03-23T08:20:56;10.50;77.68
35085;SHT85;21267;51.032;6.998;2024-03-23T08:23:33;9.92;77.44
35085;SHT85;21267;51.032;6.998;2024-03-23T08:26:25;10.16;76.99
35085;SHT85;21267;51.032;6.998;2024-03-23T08:28:51;10.80;76.12
35085;SHT85;21267;51.032;6.998;2024-03-23T08:31:31;10.28;74.45
35085;SHT85;21267;51.032;6.998;2024-03-23T08:33:57;10.50;73.75
35085;SHT85;21267;51.032;6.998;2024-03-23T08:36:23;10.21;74.42
35085;SHT85;21267;51.032;6.998;2024-03-23T08:39:04;9.40;74.49
35085;SHT85;21267;51.032;6.998;2024-03-23T08:41:29;9.39;75.87
35085;SHT85;21267;51.032;6.998;2024-03-23T08:43:55;9.34;75.38
35085;SHT85;21267;51.032;6.998;2024-03-23T08:46:25;10.05;74.48
35085;SHT85;21267;51.032;6.998;2024-03-23T08:48:51;10.55;72.46
35085;SHT85;21267;51.032;6.998;2024-03-23T08:51:18;11.15;71.12
35085;SHT85;21267;51.032;6.998;2024-03-23T08:53:59;10.61;70.79
35085;SHT85;21267;51.032;6.998;2024-03-23T08:56:24;9.92;72.52
35085;SHT85;21267;51.032;6.998;2024-03-23T08:58:50;10.03;73.55
35085;SHT85;21267;51.032;6.998;2024-03-23T09:01:15;10.28;72.36
35085;SHT85;21267;51.032;6.998;2024-03-23T09:03:41;9.92;73.31
35085;SHT85;21267;51.032;6.998;2024-03-23T09:06:11;9.73;74.06
35085;SHT85;21267;51.032;6.998;2024-03-23T09:08:40;9.87;74.41
35085;SHT85;21267;51.032;6.998;2024-03-23T09:11:11;10.59;73.29
35085;SHT85;21267;51.032;6.998;2024-03-23T09:13:52;9.85;74.94
35085;SHT85;21267;51.032;6.998;2024-03-23T09:16:28;10.38;74.39
35085;SHT85;21267;51.032;6.998;2024-03-23T09:19:08;10.64;73.58
35085;SHT85;21267;51.032;6.998;2024-03-23T09:21:34;11.62;71.35
35085;SHT85;21267;51.032;6.998;2024-03-23T09:24:14;11.42;70.53
35085;SHT85;21267;51.032;6.998;2024-03-23T09:26:39;10.74;71.97
35085;SHT85;21267;51.032;6.998;2024-03-23T09:29:05;10.19;72.80
35085;SHT85;21267;51.032;6.998;2024-03-23T09:31:45;10.67;70.71
35085;SHT85;21267;51.032;6.998;2024-03-23T09:34:11;11.49;69.74
35085;SHT85;21267;51.032;6.998;2024-03-23T09:36:36;11.49;68.43
35085;SHT85;21267;51.032;6.998;2024-03-23T09:39:02;10.61;69.88
35085;SHT85;21267;51.032;6.998;2024-03-23T09:41:29;11.14;69.59
35085;SHT85;21267;51.032;6.998;2024-03-23T09:43:54;10.22;69.41
35085;SHT85;21267;51.032;6.998;2024-03-23T09:46:20;10.28;70.41
35085;SHT85;21267;51.032;6.998;2024-03-23T09:48:48;11.10;68.61
35085;SHT85;21267;51.032;6.998;2024-03-23T09:51:14;10.56;68.59
35085;SHT85;21267;51.032;6.998;2024-03-23T09:53:54;10.12;69.70
35085;SHT85;21267;51.032;6.998;2024-03-23T09:56:23;10.22;70.14
35085;SHT85;21267;51.032;6.998;2024-03-23T09:59:03;10.52;69.08
35085;SHT85;21267;51.032;6.998;2024-03-23T10:01:51;10.46;68.79
35085;SHT85;21267;51.032;6.998;2024-03-23T10:04:41;9.99;68.26
35085;SHT85;21267;51.032;6.998;2024-03-23T10:07:23;10.30;66.66
35085;SHT85;21267;51.032;6.998;2024-03-23T10:09:49;9.63;67.29
35085;SHT85;21267;51.032;6.998;2024-03-23T10:12:19;9.77;68.40
35085;SHT85;21267;51.032;6.998;2024-03-23T10:14:52;10.88;67.12
35085;SHT85;21267;51.032;6.998;2024-03-23T10:17:19;11.67;64.78
35085;SHT85;21267;51.032;6.998;2024-03-23T10:19:45;11.07;64.16
35085;SHT85;21267;51.032;6.998;2024-03-23T10:22:26;11.75;63.18
35085;SHT85;21267;51.032;6.998;2024-03-23T10:24:52;12.82;61.85
35085;SHT85;21267;51.032;6.998;2024-03-23T10:27:32;11.89;60.69
35085;SHT85;21267;51.032;6.998;2024-03-23T10:30:07;12.03;60.65
35085;SHT85;21267;51.032;6.998;2024-03-23T10:32:48;11.04;62.14
35085;SHT85;21267;51.032;6.998;2024-03-23T10:35:22;10.74;63.22
35085;SHT85;21267;51.032;6.998;2024-03-23T10:37:48;10.28;64.35
35085;SHT85;21267;51.032;6.998;2024-03-23T10:40:16;10.32;65.83
35085;SHT85;21267;51.032;6.998;2024-03-23T10:42:44;9.50;66.13
35085;SHT85;21267;51.032;6.998;2024-03-23T10:45:10;8.95;69.61
35085;SHT85;21267;51.032;6.998;2024-03-23T10:47:36;8.74;71.68
35085;SHT85;21267;51.032;6.998;2024-03-23T10:50:05;8.55;70.37
35085;SHT85;21267;51.032;6.998;2024-03-23T10:52:33;8.57;70.53
35085;SHT85;21267;51.032;6.998;2024-03-23T10:55:16;8.68;70.25
35085;SHT85;21267;51.032;6.998;2024-03-23T10:57:47;8.14;71.08
35085;SHT85;21267;51.032;6.998;2024-03-23T11:00:15;7.97;72.39
35085;SHT85;21267;51.032;6.998;2024-03-23T11:02:41;7.85;71.34
35085;SHT85;21267;51.032;6.998;2024-03-23T11:07:51;7.99;72.30
35085;SHT85;21267;51.032;6.998;2024-03-23T11:10:28;8.03;73.46
35085;SHT85;21267;51.032;6.998;2024-03-23T11:12:58;7.92;75.33
35085;SHT85;21267;51.032;6.998;2024-03-23T11:15:24;7.71;77.09
35085;SHT85;21267;51.032;6.998;2024-03-23T11:18:03;7.82;77.11
35085;SHT85;21267;51.032;6.998;2024-03-23T11:20:33;7.52;76.95
35085;SHT85;21267;51.032;6.998;2024-03-23T11:22:59;7.48;77.11
35085;SHT85;21267;51.032;6.998;2024-03-23T11:25:33;7.14;76.71
35085;SHT85;21267;51.032;6.998;2024-03-23T11:28:11;6.92;76.74
35085;SHT85;21267;51.032;6.998;2024-03-23T11:30:51;7.03;77.09
35085;SHT85;21267;51.032;6.998;2024-03-23T11:33:18;7.01;76.16
35085;SHT85;21267;51.032;6.998;2024-03-23T11:35:44;7.15;75.21
35085;SHT85;21267;51.032;6.998;2024-03-23T11:38:17;7.69;74.60
35085;SHT85;21267;51.032;6.998;2024-03-23T11:40:49;9.47;70.43
35085;SHT85;21267;51.032;6.998;2024-03-23T11:43:19;9.98;68.87
35085;SHT85;21267;51.032;6.998;2024-03-23T11:45:49;10.06;67.43
35085;SHT85;21267;51.032;6.998;2024-03-23T11:48:22;10.71;66.51
35085;SHT85;21267;51.032;6.998;2024-03-23T11:50:50;11.07;64.64
35085;SHT85;21267;51.032;6.998;2024-03-23T11:53:17;9.82;67.13
35085;SHT85;21267;51.032;6.998;2024-03-23T11:55:56;9.84;69.58
35085;SHT85;21267;51.032;6.998;2024-03-23T11:58:24;10.05;68.72
35085;SHT85;21267;51.032;6.998;2024-03-23T12:00:56;11.02;66.80
35085;SHT85;21267;51.032;6.998;2024-03-23T12:03:37;11.41;64.65
35085;SHT85;21267;51.032;6.998;2024-03-23T12:06:04;11.21;66.74
35085;SHT85;21267;51.032;6.998;2024-03-23T12:08:45;10.13;68.68
35085;SHT85;21267;51.032;6.998;2024-03-23T12:11:13;11.11;67.13
35085;SHT85;21267;51.032;6.998;2024-03-23T12:13:40;11.71;66.09
35085;SHT85;21267;51.032;6.998;2024-03-23T12:16:19;11.49;65.77
35085;SHT85;21267;51.032;6.998;2024-03-23T12:18:49;12.06;65.62
35085;SHT85;21267;51.032;6.998;2024-03-23T12:21:15;11.21;68.07
35085;SHT85;21267;51.032;6.998;2024-03-23T12:23:42;9.81;67.29
35085;SHT85;21267;51.032;6.998;2024-03-23T12:26:10;9.99;67.70
35085;SHT85;21267;51.032;6.998;2024-03-23T12:28:37;10.42;67.52
35085;SHT85;21267;51.032;6.998;2024-03-23T12:31:03;10.30;66.38
35085;SHT85;21267;51.032;6.998;2024-03-23T12:33:29;9.99;68.13
35085;SHT85;21267;51.032;6.998;2024-03-23T12:36:02;8.72;72.71
35085;SHT85;21267;51.032;6.998;2024-03-23T12:38:27;7.72;77.36
35085;SHT85;21267;51.032;6.998;2024-03-23T12:40:53;7.17;78.88
35085;SHT85;21267;51.032;6.998;2024-03-23T12:43:19;6.93;79.58
35085;SHT85;21267;51.032;6.998;2024-03-23T12:45:48;6.18;80.09
35085;SHT85;21267;51.032;6.998;2024-03-23T12:48:14;5.70;81.97
35085;SHT85;21267;51.032;6.998;2024-03-23T12:50:40;5.52;83.68
35085;SHT85;21267;51.032;6.998;2024-03-23T12:53:06;5.53;84.44
35085;SHT85;21267;51.032;6.998;2024-03-23T12:55:38;5.84;84.03
35085;SHT85;21267;51.032;6.998;2024-03-23T12:58:04;6.32;83.18
35085;SHT85;21267;51.032;6.998;2024-03-23T13:00:30;6.49;81.84
35085;SHT85;21267;51.032;6.998;2024-03-23T13:02:55;7.52;81.14
35085;SHT85;21267;51.032;6.998;2024-03-23T13:05:21;8.58;78.15
35085;SHT85;21267;51.032;6.998;2024-03-23T13:07:47;9.39;74.26
35085;SHT85;21267;51.032;6.998;2024-03-23T13:10:12;9.11;71.57
35085;SHT85;21267;51.032;6.998;2024-03-23T13:12:39;10.11;74.14
35085;SHT85;21267;51.032;6.998;2024-03-23T13:15:05;10.06;69.38
35085;SHT85;21267;51.032;6.998;2024-03-23T13:17:32;10.55;68.08
35085;SHT85;21267;51.032;6.998;2024-03-23T13:20:12;10.84;68.78
35085;SHT85;21267;51.032;6.998;2024-03-23T13:22:40;10.63;67.59
35085;SHT85;21267;51.032;6.998;2024-03-23T13:25:20;10.67;67.06
35085;SHT85;21267;51.032;6.998;2024-03-23T13:27:47;11.10;67.21
35085;SHT85;21267;51.032;6.998;2024-03-23T13:30:14;10.91;65.85
35085;SHT85;21267;51.032;6.998;2024-03-23T13:32:45;11.21;64.73
35085;SHT85;21267;51.032;6.998;2024-03-23T13:35:10;11.56;64.54
35085;SHT85;21267;51.032;6.998;2024-03-23T13:37:36;10.98;65.33
35085;SHT85;21267;51.032;6.998;2024-03-23T13:40:19;11.55;64.10
35085;SHT85;21267;51.032;6.998;2024-03-23T13:42:45;11.83;64.84
35085;SHT85;21267;51.032;6.998;2024-03-23T13:45:11;12.13;64.27
35085;SHT85;21267;51.032;6.998;2024-03-23T13:47:43;11.10;64.78
35085;SHT85;21267;51.032;6.998;2024-03-23T13:50:09;10.39;66.21
35085;SHT85;21267;51.032;6.998;2024-03-23T13:52:34;10.73;65.67
35085;SHT85;21267;51.032;6.998;2024-03-23T13:55:00;10.87;64.91
35085;SHT85;21267;51.032;6.998;2024-03-23T13:57:25;10.33;66.27
35085;SHT85;21267;51.032;6.998;2024-03-23T13:59:51;9.77;66.76
35085;SHT85;21267;51.032;6.998;2024-03-23T14:02:16;9.78;67.51
35085;SHT85;21267;51.032;6.998;2024-03-23T14:04:42;9.80;68.06
35085;SHT85;21267;51.032;6.998;2024-03-23T14:07:08;9.29;65.69
35085;SHT85;21267;51.032;6.998;2024-03-23T14:09:34;9.27;65.00
35085;SHT85;21267;51.032;6.998;2024-03-23T14:12:00;9.16;63.19
35085;SHT85;21267;51.032;6.998;2024-03-23T14:14:25;9.01;62.95
35085;SHT85;21267;51.032;6.998;2024-03-23T14:16:51;8.96;63.42
35085;SHT85;21267;51.032;6.998;2024-03-23T14:19:32;9.20;63.91
35085;SHT85;21267;51.032;6.998;2024-03-23T14:21:57;9.80;63.13
35085;SHT85;21267;51.032;6.998;2024-03-23T14:24:23;10.34;62.33
35085;SHT85;21267;51.032;6.998;2024-03-23T14:27:04;12.00;61.08
35085;SHT85;21267;51.032;6.998;2024-03-23T14:29:33;12.10;60.12
35085;SHT85;21267;51.032;6.998;2024-03-23T14:32:14;12.49;59.94
35085;SHT85;21267;51.032;6.998;2024-03-23T14:34:41;12.04;60.41
35085;SHT85;21267;51.032;6.998;2024-03-23T14:37:23;11.97;60.38
35085;SHT85;21267;51.032;6.998;2024-03-23T14:39:48;11.21;62.97
35085;SHT85;21267;51.032;6.998;2024-03-23T14:42:14;10.57;64.55
35085;SHT85;21267;51.032;6.998;2024-03-23T14:44:39;10.33;63.29
35085;SHT85;21267;51.032;6.998;2024-03-23T14:47:05;9.94;64.39
35085;SHT85;21267;51.032;6.998;2024-03-23T14:49:31;9.70;65.21
35085;SHT85;21267;51.032;6.998;2024-03-23T14:51:57;9.33;65.93
35085;SHT85;21267;51.032;6.998;2024-03-23T14:54:39;9.05;67.06
35085;SHT85;21267;51.032;6.998;2024-03-23T14:57:06;8.67;67.44
35085;SHT85;21267;51.032;6.998;2024-03-23T14:59:50;8.60;68.63
35085;SHT85;21267;51.032;6.998;2024-03-23T15:02:18;8.65;69.15
35085;SHT85;21267;51.032;6.998;2024-03-23T15:04:44;8.40;68.51
35085;SHT85;21267;51.032;6.998;2024-03-23T15:07:13;8.27;69.41
35085;SHT85;21267;51.032;6.998;2024-03-23T15:09:39;8.30;69.31
35085;SHT85;21267;51.032;6.998;2024-03-23T15:12:05;8.07;69.55
35085;SHT85;21267;51.032;6.998;2024-03-23T15:14:32;8.13;68.33
35085;SHT85;21267;51.032;6.998;2024-03-23T15:17:00;8.20;69.06
35085;SHT85;21267;51.032;6.998;2024-03-23T15:19:29;8.17;69.11
35085;SHT85;21267;51.032;6.998;2024-03-23T15:21:55;8.67;68.34
35085;SHT85;21267;51.032;6.998;2024-03-23T15:24:21;9.22;67.19
35085;SHT85;21267;51.032;6.998;2024-03-23T15:26:47;9.75;66.54
35085;SHT85;21267;51.032;6.998;2024-03-23T15:29:15;10.18;65.58
35085;SHT85;21267;51.032;6.998;2024-03-23T15:31:42;9.90;66.06
35085;SHT85;21267;51.032;6.998;2024-03-23T15:34:08;10.01;66.27
35085;SHT85;21267;51.032;6.998;2024-03-23T15:36:37;10.09;65.93
35085;SHT85;21267;51.032;6.998;2024-03-23T15:39:07;9.95;65.99
35085;SHT85;21267;51.032;6.998;2024-03-23T15:41:33;10.48;65.17
35085;SHT85;21267;51.032;6.998;2024-03-23T15:44:01;10.56;65.22
35085;SHT85;21267;51.032;6.998;2024-03-23T15:46:27;10.59;65.64
35085;SHT85;21267;51.032;6.998;2024-03-23T15:48:53;10.12;66.13
35085;SHT85;21267;51.032;6.998;2024-03-23T15:51:20;10.43;65.74
35085;SHT85;21267;51.032;6.998;2024-03-23T15:53:46;9.81;67.13
35085;SHT85;21267;51.032;6.998;2024-03-23T15:56:12;9.58;68.39
35085;SHT85;21267;51.032;6.998;2024-03-23T15:58:39;8.89;69.91
35085;SHT85;21267;51.032;6.998;2024-03-23T16:01:07;8.74;70.17
35085;SHT85;21267;51.032;6.998;2024-03-23T16:03:38;8.89;70.75
35085;SHT85;21267;51.032;6.998;2024-03-23T16:06:05;8.45;71.57
35085;SHT85;21267;51.032;6.998;2024-03-23T16:08:31;8.54;72.07
35085;SHT85;21267;51.032;6.998;2024-03-23T16:13:35;8.40;71.74
35085;SHT85;21267;51.032;6.998;2024-03-23T16:16:04;8.36;72.04
35085;SHT85;21267;51.032;6.998;2024-03-23T16:18:47;8.45;72.21
35085;SHT85;21267;51.032;6.998;2024-03-23T16:21:13;8.55;72.52
35085;SHT85;21267;51.032;6.998;2024-03-23T16:23:38;8.57;73.20
35085;SHT85;21267;51.032;6.998;2024-03-23T16:26:21;8.74;71.12
35085;SHT85;21267;51.032;6.998;2024-03-23T16:28:46;9.24;69.49
35085;SHT85;21267;51.032;6.998;2024-03-23T16:31:28;9.46;67.90
35085;SHT85;21267;51.032;6.998;2024-03-23T16:33:54;9.77;67.52
35085;SHT85;21267;51.032;6.998;2024-03-23T16:36:20;9.87;66.96
35085;SHT85;21267;51.032;6.998;2024-03-23T16:39:01;9.78;67.23
35085;SHT85;21267;51.032;6.998;2024-03-23T16:41:27;9.46;67.51
35085;SHT85;21267;51.032;6.998;2024-03-23T16:43:52;9.08;68.04
35085;SHT85;21267;51.032;6.998;2024-03-23T16:46:19;9.08;68.36
35085;SHT85;21267;51.032;6.998;2024-03-23T16:48:47;9.26;68.35
35085;SHT85;21267;51.032;6.998;2024-03-23T16:51:12;9.73;67.86
35085;SHT85;21267;51.032;6.998;2024-03-23T16:53:53;9.32;68.84
35085;SHT85;21267;51.032;6.998;2024-03-23T16:56:20;9.19;68.81
35085;SHT85;21267;51.032;6.998;2024-03-23T16:59:01;8.88;70.17
35085;SHT85;21267;51.032;6.998;2024-03-23T17:01:26;8.92;70.89